sensor_id;sensor_type;location;lat;lon;timestamp;P1;durP1;ratioP1;P2;durP2;ratioP2
71937;SDS011;59810;48.800;9.086;2022-12-07T00:01:32;11.45;;;4.97;;
71937;SDS011;59810;48.800;9.086;2022-12-07T00:04:02;11.17;;;4.77;;
71937;SDS011;59810;48.800;9.086;2022-12-07T00:06:35;12.48;;;5.10;;
71937;SDS011;59810;48.800;9.086;2022-12-07T00:09:02;12.70;;;5.55;;
71937;SDS011;59810;48.800;9.086;2022-12-07T00:11:29;13.32;;;5.47;;
71937;SDS011;59810;48.800;9.086;2022-12-07T00:13:58;12.38;;;5.50;;
71937;SDS011;59810;48.800;9.086;2022-12-07T00:16:26;10.97;;;4.73;;
71937;SDS011;59810;48.800;9.086;2022-12-07T00:18:53;10.10;;;4.43;;
71937;SDS011;59810;48.800;9.086;2022-12-07T00:21:21;10.88;;;5.00;;
71937;SDS011;59810;48.800;9.086;2022-12-07T00:23:48;11.85;;;4.90;;
71937;SDS011;59810;48.800;9.086;2022-12-07T00:28:46;11.37;;;4.73;;
71937;SDS011;59810;48.800;9.086;2022-12-07T00:31:14;11.07;;;4.80;;
71937;SDS011;59810;48.800;9.086;2022-12-07T00:33:40;11.43;;;5.35;;
71937;SDS011;59810;48.800;9.086;2022-12-07T00:36:07;11.30;;;5.43;;
71937;SDS011;59810;48.800;9.086;2022-12-07T00:38:35;13.15;;;5.45;;
71937;SDS011;59810;48.800;9.086;2022-12-07T00:41:12;12.25;;;5.20;;
71937;SDS011;59810;48.800;9.086;2022-12-07T00:43:40;11.95;;;5.40;;
71937;SDS011;59810;48.800;9.086;2022-12-07T00:46:06;12.93;;;5.80;;
71937;SDS011;59810;48.800;9.086;2022-12-07T00:48:32;14.63;;;6.03;;
71937;SDS011;59810;48.800;9.086;2022-12-07T00:50:57;13.10;;;5.70;;
71937;SDS011;59810;48.800;9.086;2022-12-07T00:53:24;13.77;;;5.70;;
71937;SDS011;59810;48.800;9.086;2022-12-07T00:55:49;14.75;;;6.10;;
71937;SDS011;59810;48.800;9.086;2022-12-07T00:58:15;15.57;;;6.18;;
71937;SDS011;59810;48.800;9.086;2022-12-07T01:00:41;13.67;;;6.07;;
71937;SDS011;59810;48.800;9.086;2022-12-07T01:03:08;15.77;;;6.30;;
71937;SDS011;59810;48.800;9.086;2022-12-07T01:05:35;14.03;;;5.90;;
71937;SDS011;59810;48.800;9.086;2022-12-07T01:08:00;12.98;;;5.63;;
71937;SDS011;59810;48.800;9.086;2022-12-07T01:10:26;13.47;;;5.97;;
71937;SDS011;59810;48.800;9.086;2022-12-07T01:12:54;14.97;;;6.30;;
71937;SDS011;59810;48.800;9.086;2022-12-07T01:15:19;14.95;;;5.82;;
71937;SDS011;59810;48.800;9.086;2022-12-07T01:17:45;13.40;;;5.60;;
71937;SDS011;59810;48.800;9.086;2022-12-07T01:20:10;13.10;;;6.27;;
71937;SDS011;59810;48.800;9.086;2022-12-07T01:22:37;12.57;;;5.65;;
71937;SDS011;59810;48.800;9.086;2022-12-07T01:25:06;14.70;;;6.20;;
71937;SDS011;59810;48.800;9.086;2022-12-07T01:27:33;14.65;;;5.95;;
71937;SDS011;59810;48.800;9.086;2022-12-07T01:29:59;13.32;;;5.75;;
71937;SDS011;59810;48.800;9.086;2022-12-07T01:32:25;15.30;;;6.33;;
71937;SDS011;59810;48.800;9.086;2022-12-07T01:34:50;15.45;;;6.78;;
71937;SDS011;59810;48.800;9.086;2022-12-07T01:37:18;13.25;;;6.13;;
71937;SDS011;59810;48.800;9.086;2022-12-07T01:39:43;13.00;;;5.47;;
71937;SDS011;59810;48.800;9.086;2022-12-07T01:42:09;11.27;;;5.00;;
71937;SDS011;59810;48.800;9.086;2022-12-07T01:47:38;12.52;;;6.13;;
71937;SDS011;59810;48.800;9.086;2022-12-07T01:50:05;15.07;;;5.67;;
71937;SDS011;59810;48.800;9.086;2022-12-07T01:52:31;15.88;;;5.60;;
71937;SDS011;59810;48.800;9.086;2022-12-07T01:55:07;12.40;;;5.53;;
71937;SDS011;59810;48.800;9.086;2022-12-07T01:57:38;12.85;;;5.88;;
71937;SDS011;59810;48.800;9.086;2022-12-07T02:00:06;14.32;;;5.97;;
71937;SDS011;59810;48.800;9.086;2022-12-07T02:02:34;13.83;;;5.77;;
71937;SDS011;59810;48.800;9.086;2022-12-07T02:05:03;12.23;;;5.47;;
71937;SDS011;59810;48.800;9.086;2022-12-07T02:07:30;14.32;;;5.97;;
71937;SDS011;59810;48.800;9.086;2022-12-07T02:10:11;13.73;;;5.88;;
71937;SDS011;59810;48.800;9.086;2022-12-07T02:12:54;13.43;;;6.10;;
71937;SDS011;59810;48.800;9.086;2022-12-07T02:15:28;12.83;;;6.17;;
71937;SDS011;59810;48.800;9.086;2022-12-07T02:18:07;14.32;;;5.78;;
71937;SDS011;59810;48.800;9.086;2022-12-07T02:20:42;16.05;;;5.00;;
71937;SDS011;59810;48.800;9.086;2022-12-07T02:26:09;13.68;;;5.22;;
71937;SDS011;59810;48.800;9.086;2022-12-07T02:28:55;11.13;;;5.00;;
71937;SDS011;59810;48.800;9.086;2022-12-07T02:31:28;12.65;;;5.22;;
71937;SDS011;59810;48.800;9.086;2022-12-07T02:36:54;13.15;;;5.18;;
71937;SDS011;59810;48.800;9.086;2022-12-07T02:39:31;11.63;;;5.32;;
71937;SDS011;59810;48.800;9.086;2022-12-07T02:42:09;11.87;;;4.87;;
71937;SDS011;59810;48.800;9.086;2022-12-07T02:44:40;13.18;;;5.35;;
71937;SDS011;59810;48.800;9.086;2022-12-07T02:47:07;12.40;;;5.63;;
71937;SDS011;59810;48.800;9.086;2022-12-07T02:49:37;12.30;;;5.30;;
71937;SDS011;59810;48.800;9.086;2022-12-07T02:52:04;12.05;;;4.85;;
71937;SDS011;59810;48.800;9.086;2022-12-07T02:54:30;11.50;;;4.17;;
71937;SDS011;59810;48.800;9.086;2022-12-07T03:13:49;11.10;;;4.30;;
71937;SDS011;59810;48.800;9.086;2022-12-07T03:16:18;10.00;;;4.60;;
71937;SDS011;59810;48.800;9.086;2022-12-07T03:18:52;11.77;;;4.60;;
71937;SDS011;59810;48.800;9.086;2022-12-07T03:21:22;12.67;;;4.30;;
71937;SDS011;59810;48.800;9.086;2022-12-07T03:23:51;12.57;;;5.22;;
71937;SDS011;59810;48.800;9.086;2022-12-07T03:26:23;10.25;;;4.50;;
71937;SDS011;59810;48.800;9.086;2022-12-07T03:29:00;11.15;;;4.30;;
71937;SDS011;59810;48.800;9.086;2022-12-07T03:31:34;13.80;;;4.47;;
71937;SDS011;59810;48.800;9.086;2022-12-07T03:36:47;8.55;;;3.58;;
71937;SDS011;59810;48.800;9.086;2022-12-07T03:39:22;10.70;;;4.25;;
71937;SDS011;59810;48.800;9.086;2022-12-07T03:41:54;8.25;;;3.25;;
71937;SDS011;59810;48.800;9.086;2022-12-07T03:44:21;7.82;;;2.95;;
71937;SDS011;59810;48.800;9.086;2022-12-07T03:47:02;8.27;;;2.93;;
71937;SDS011;59810;48.800;9.086;2022-12-07T03:49:43;6.68;;;2.10;;
71937;SDS011;59810;48.800;9.086;2022-12-07T03:55:05;8.85;;;2.80;;
71937;SDS011;59810;48.800;9.086;2022-12-07T03:57:36;7.75;;;2.60;;
71937;SDS011;59810;48.800;9.086;2022-12-07T04:00:04;7.47;;;2.83;;
71937;SDS011;59810;48.800;9.086;2022-12-07T04:02:33;7.93;;;2.88;;
71937;SDS011;59810;48.800;9.086;2022-12-07T04:04:59;8.73;;;3.00;;
71937;SDS011;59810;48.800;9.086;2022-12-07T04:07:24;7.93;;;3.43;;
71937;SDS011;59810;48.800;9.086;2022-12-07T04:09:50;9.60;;;3.40;;
71937;SDS011;59810;48.800;9.086;2022-12-07T04:12:15;8.45;;;2.88;;
71937;SDS011;59810;48.800;9.086;2022-12-07T04:14:43;8.18;;;2.30;;
71937;SDS011;59810;48.800;9.086;2022-12-07T04:17:09;7.30;;;2.57;;
71937;SDS011;59810;48.800;9.086;2022-12-07T04:19:34;8.30;;;2.63;;
71937;SDS011;59810;48.800;9.086;2022-12-07T04:22:00;7.20;;;2.30;;
71937;SDS011;59810;48.800;9.086;2022-12-07T04:24:26;7.38;;;2.50;;
71937;SDS011;59810;48.800;9.086;2022-12-07T04:26:53;8.15;;;2.50;;
71937;SDS011;59810;48.800;9.086;2022-12-07T04:29:18;7.15;;;1.85;;
71937;SDS011;59810;48.800;9.086;2022-12-07T04:31:44;7.03;;;2.13;;
71937;SDS011;59810;48.800;9.086;2022-12-07T04:34:10;7.13;;;1.92;;
71937;SDS011;59810;48.800;9.086;2022-12-07T04:36:36;6.67;;;2.47;;
71937;SDS011;59810;48.800;9.086;2022-12-07T04:39:02;6.82;;;2.33;;
71937;SDS011;59810;48.800;9.086;2022-12-07T04:41:27;8.27;;;3.22;;
71937;SDS011;59810;48.800;9.086;2022-12-07T04:43:56;6.90;;;2.30;;
71937;SDS011;59810;48.800;9.086;2022-12-07T04:46:24;6.38;;;2.33;;
71937;SDS011;59810;48.800;9.086;2022-12-07T04:48:51;6.47;;;1.90;;
71937;SDS011;59810;48.800;9.086;2022-12-07T04:51:27;7.70;;;2.53;;
71937;SDS011;59810;48.800;9.086;2022-12-07T04:53:54;7.05;;;2.33;;
71937;SDS011;59810;48.800;9.086;2022-12-07T04:56:20;6.72;;;2.42;;
71937;SDS011;59810;48.800;9.086;2022-12-07T04:58:47;7.32;;;1.92;;
71937;SDS011;59810;48.800;9.086;2022-12-07T05:01:13;7.25;;;2.33;;
71937;SDS011;59810;48.800;9.086;2022-12-07T05:03:40;6.43;;;2.00;;
71937;SDS011;59810;48.800;9.086;2022-12-07T05:06:05;5.82;;;1.88;;
71937;SDS011;59810;48.800;9.086;2022-12-07T05:08:32;6.03;;;1.80;;
71937;SDS011;59810;48.800;9.086;2022-12-07T05:10:58;6.20;;;2.35;;
71937;SDS011;59810;48.800;9.086;2022-12-07T05:13:23;7.53;;;2.40;;
71937;SDS011;59810;48.800;9.086;2022-12-07T05:15:49;8.83;;;2.60;;
71937;SDS011;59810;48.800;9.086;2022-12-07T05:18:14;10.53;;;3.40;;
71937;SDS011;59810;48.800;9.086;2022-12-07T05:20:40;7.07;;;3.00;;
71937;SDS011;59810;48.800;9.086;2022-12-07T05:23:09;8.35;;;3.47;;
71937;SDS011;59810;48.800;9.086;2022-12-07T05:25:34;8.97;;;3.23;;
71937;SDS011;59810;48.800;9.086;2022-12-07T05:28:02;10.68;;;3.45;;
71937;SDS011;59810;48.800;9.086;2022-12-07T05:30:29;9.63;;;3.38;;
71937;SDS011;59810;48.800;9.086;2022-12-07T05:32:57;9.23;;;3.65;;
71937;SDS011;59810;48.800;9.086;2022-12-07T05:35:25;9.45;;;4.30;;
71937;SDS011;59810;48.800;9.086;2022-12-07T05:37:52;9.17;;;3.93;;
71937;SDS011;59810;48.800;9.086;2022-12-07T05:40:20;11.35;;;3.97;;
71937;SDS011;59810;48.800;9.086;2022-12-07T05:42:45;9.83;;;3.90;;
71937;SDS011;59810;48.800;9.086;2022-12-07T05:45:10;11.70;;;4.30;;
71937;SDS011;59810;48.800;9.086;2022-12-07T05:47:36;10.93;;;4.30;;
71937;SDS011;59810;48.800;9.086;2022-12-07T05:50:02;11.17;;;4.10;;
71937;SDS011;59810;48.800;9.086;2022-12-07T05:52:28;9.70;;;4.18;;
71937;SDS011;59810;48.800;9.086;2022-12-07T05:54:54;9.20;;;3.53;;
71937;SDS011;59810;48.800;9.086;2022-12-07T05:57:19;12.57;;;4.00;;
71937;SDS011;59810;48.800;9.086;2022-12-07T05:59:45;10.13;;;3.60;;
71937;SDS011;59810;48.800;9.086;2022-12-07T06:02:11;8.43;;;2.80;;
71937;SDS011;59810;48.800;9.086;2022-12-07T06:04:41;9.00;;;3.40;;
71937;SDS011;59810;48.800;9.086;2022-12-07T06:07:08;8.07;;;2.95;;
71937;SDS011;59810;48.800;9.086;2022-12-07T06:09:34;9.03;;;3.30;;
71937;SDS011;59810;48.800;9.086;2022-12-07T06:11:59;10.25;;;3.40;;
71937;SDS011;59810;48.800;9.086;2022-12-07T06:14:43;10.10;;;3.50;;
71937;SDS011;59810;48.800;9.086;2022-12-07T06:17:10;10.93;;;3.70;;
71937;SDS011;59810;48.800;9.086;2022-12-07T06:19:38;11.93;;;3.67;;
71937;SDS011;59810;48.800;9.086;2022-12-07T06:22:04;10.77;;;4.10;;
71937;SDS011;59810;48.800;9.086;2022-12-07T06:24:34;10.13;;;3.95;;
71937;SDS011;59810;48.800;9.086;2022-12-07T06:27:00;8.93;;;3.42;;
71937;SDS011;59810;48.800;9.086;2022-12-07T06:29:26;9.67;;;3.77;;
71937;SDS011;59810;48.800;9.086;2022-12-07T06:31:51;9.45;;;3.13;;
71937;SDS011;59810;48.800;9.086;2022-12-07T06:34:17;11.20;;;3.40;;
71937;SDS011;59810;48.800;9.086;2022-12-07T06:36:45;9.40;;;3.30;;
71937;SDS011;59810;48.800;9.086;2022-12-07T06:39:15;9.13;;;3.13;;
71937;SDS011;59810;48.800;9.086;2022-12-07T06:41:41;10.20;;;2.63;;
71937;SDS011;59810;48.800;9.086;2022-12-07T06:44:07;7.00;;;2.53;;
71937;SDS011;59810;48.800;9.086;2022-12-07T06:46:32;8.20;;;2.70;;
71937;SDS011;59810;48.800;9.086;2022-12-07T06:49:00;7.65;;;2.40;;
71937;SDS011;59810;48.800;9.086;2022-12-07T06:51:26;6.57;;;2.42;;
71937;SDS011;59810;48.800;9.086;2022-12-07T06:53:51;7.27;;;2.70;;
71937;SDS011;59810;48.800;9.086;2022-12-07T06:56:16;7.77;;;2.67;;
71937;SDS011;59810;48.800;9.086;2022-12-07T06:58:41;6.80;;;2.23;;
71937;SDS011;59810;48.800;9.086;2022-12-07T07:01:10;6.27;;;1.97;;
71937;SDS011;59810;48.800;9.086;2022-12-07T07:03:37;8.32;;;2.78;;
71937;SDS011;59810;48.800;9.086;2022-12-07T07:06:03;6.63;;;2.42;;
71937;SDS011;59810;48.800;9.086;2022-12-07T07:08:29;8.97;;;2.40;;
71937;SDS011;59810;48.800;9.086;2022-12-07T07:10:54;6.80;;;2.28;;
71937;SDS011;59810;48.800;9.086;2022-12-07T07:13:19;7.40;;;2.47;;
71937;SDS011;59810;48.800;9.086;2022-12-07T07:15:45;6.57;;;1.97;;
71937;SDS011;59810;48.800;9.086;2022-12-07T07:18:10;7.33;;;2.63;;
71937;SDS011;59810;48.800;9.086;2022-12-07T07:20:35;9.50;;;3.33;;
71937;SDS011;59810;48.800;9.086;2022-12-07T07:23:01;8.80;;;3.10;;
71937;SDS011;59810;48.800;9.086;2022-12-07T07:25:29;7.83;;;2.90;;
71937;SDS011;59810;48.800;9.086;2022-12-07T07:27:56;7.50;;;2.47;;
71937;SDS011;59810;48.800;9.086;2022-12-07T07:30:21;8.13;;;2.90;;
71937;SDS011;59810;48.800;9.086;2022-12-07T07:32:47;7.03;;;2.20;;
71937;SDS011;59810;48.800;9.086;2022-12-07T07:35:12;8.33;;;2.40;;
71937;SDS011;59810;48.800;9.086;2022-12-07T07:37:42;8.67;;;2.70;;
71937;SDS011;59810;48.800;9.086;2022-12-07T07:40:08;6.45;;;2.25;;
71937;SDS011;59810;48.800;9.086;2022-12-07T07:42:34;5.50;;;2.20;;
71937;SDS011;59810;48.800;9.086;2022-12-07T07:45:00;7.93;;;2.42;;
71937;SDS011;59810;48.800;9.086;2022-12-07T07:47:28;7.10;;;2.47;;
71937;SDS011;59810;48.800;9.086;2022-12-07T07:49:54;8.17;;;2.73;;
71937;SDS011;59810;48.800;9.086;2022-12-07T07:52:19;8.10;;;2.40;;
71937;SDS011;59810;48.800;9.086;2022-12-07T07:54:44;7.27;;;2.60;;
71937;SDS011;59810;48.800;9.086;2022-12-07T07:57:10;8.23;;;2.60;;
71937;SDS011;59810;48.800;9.086;2022-12-07T07:59:35;7.47;;;2.17;;
71937;SDS011;59810;48.800;9.086;2022-12-07T08:02:00;6.87;;;2.27;;
71937;SDS011;59810;48.800;9.086;2022-12-07T08:04:28;6.70;;;2.30;;
71937;SDS011;59810;48.800;9.086;2022-12-07T08:06:53;5.67;;;2.13;;
71937;SDS011;59810;48.800;9.086;2022-12-07T08:09:18;7.70;;;2.57;;
71937;SDS011;59810;48.800;9.086;2022-12-07T08:11:44;7.00;;;2.50;;
71937;SDS011;59810;48.800;9.086;2022-12-07T08:14:10;8.95;;;2.80;;
71937;SDS011;59810;48.800;9.086;2022-12-07T08:16:35;7.97;;;2.70;;
71937;SDS011;59810;48.800;9.086;2022-12-07T08:19:03;7.78;;;2.47;;
71937;SDS011;59810;48.800;9.086;2022-12-07T08:21:29;7.20;;;2.22;;
71937;SDS011;59810;48.800;9.086;2022-12-07T08:23:55;6.87;;;2.00;;
71937;SDS011;59810;48.800;9.086;2022-12-07T08:26:24;5.78;;;1.90;;
71937;SDS011;59810;48.800;9.086;2022-12-07T08:28:52;6.25;;;1.85;;
71937;SDS011;59810;48.800;9.086;2022-12-07T08:31:18;6.73;;;2.00;;
71937;SDS011;59810;48.800;9.086;2022-12-07T08:33:44;6.22;;;1.90;;
71937;SDS011;59810;48.800;9.086;2022-12-07T08:36:11;5.57;;;1.70;;
71937;SDS011;59810;48.800;9.086;2022-12-07T08:38:39;6.00;;;1.95;;
71937;SDS011;59810;48.800;9.086;2022-12-07T08:41:08;7.53;;;1.73;;
71937;SDS011;59810;48.800;9.086;2022-12-07T08:43:36;6.23;;;1.87;;
71937;SDS011;59810;48.800;9.086;2022-12-07T08:49:02;6.10;;;1.50;;
71937;SDS011;59810;48.800;9.086;2022-12-07T08:51:30;4.72;;;1.63;;
71937;SDS011;59810;48.800;9.086;2022-12-07T08:53:57;5.50;;;1.60;;
71937;SDS011;59810;48.800;9.086;2022-12-07T08:56:25;4.78;;;1.60;;
71937;SDS011;59810;48.800;9.086;2022-12-07T08:58:51;5.65;;;1.73;;
71937;SDS011;59810;48.800;9.086;2022-12-07T09:01:17;7.97;;;2.20;;
71937;SDS011;59810;48.800;9.086;2022-12-07T09:03:42;5.75;;;1.73;;
71937;SDS011;59810;48.800;9.086;2022-12-07T09:06:08;6.93;;;2.00;;
71937;SDS011;59810;48.800;9.086;2022-12-07T09:08:35;7.10;;;1.97;;
71937;SDS011;59810;48.800;9.086;2022-12-07T09:11:05;5.47;;;1.60;;
71937;SDS011;59810;48.800;9.086;2022-12-07T09:13:30;6.00;;;1.97;;
71937;SDS011;59810;48.800;9.086;2022-12-07T09:15:56;6.80;;;2.27;;
71937;SDS011;59810;48.800;9.086;2022-12-07T09:18:22;4.97;;;1.80;;
71937;SDS011;59810;48.800;9.086;2022-12-07T09:20:47;6.93;;;1.83;;
71937;SDS011;59810;48.800;9.086;2022-12-07T09:23:12;6.30;;;2.43;;
71937;SDS011;59810;48.800;9.086;2022-12-07T09:25:38;7.63;;;2.57;;
71937;SDS011;59810;48.800;9.086;2022-12-07T09:28:03;5.27;;;1.97;;
71937;SDS011;59810;48.800;9.086;2022-12-07T09:30:31;5.75;;;1.83;;
71937;SDS011;59810;48.800;9.086;2022-12-07T09:32:56;5.03;;;1.43;;
71937;SDS011;59810;48.800;9.086;2022-12-07T09:35:22;6.00;;;1.95;;
71937;SDS011;59810;48.800;9.086;2022-12-07T09:37:48;6.28;;;2.00;;
71937;SDS011;59810;48.800;9.086;2022-12-07T09:40:14;5.50;;;1.90;;
71937;SDS011;59810;48.800;9.086;2022-12-07T09:42:42;4.82;;;1.67;;
71937;SDS011;59810;48.800;9.086;2022-12-07T09:45:15;4.70;;;1.40;;
71937;SDS011;59810;48.800;9.086;2022-12-07T09:47:43;4.97;;;1.40;;
71937;SDS011;59810;48.800;9.086;2022-12-07T09:50:14;5.88;;;1.50;;
71937;SDS011;59810;48.800;9.086;2022-12-07T09:52:50;6.30;;;1.90;;
71937;SDS011;59810;48.800;9.086;2022-12-07T09:55:25;6.25;;;1.77;;
71937;SDS011;59810;48.800;9.086;2022-12-07T09:57:52;11.17;;;2.40;;
71937;SDS011;59810;48.800;9.086;2022-12-07T10:00:19;6.75;;;2.17;;
71937;SDS011;59810;48.800;9.086;2022-12-07T10:05:15;6.77;;;2.17;;
71937;SDS011;59810;48.800;9.086;2022-12-07T10:07:44;6.30;;;2.15;;
71937;SDS011;59810;48.800;9.086;2022-12-07T10:10:17;7.23;;;2.13;;
71937;SDS011;59810;48.800;9.086;2022-12-07T10:12:54;6.32;;;2.13;;
71937;SDS011;59810;48.800;9.086;2022-12-07T10:15:20;6.00;;;2.13;;
71937;SDS011;59810;48.800;9.086;2022-12-07T10:17:50;6.67;;;2.30;;
71937;SDS011;59810;48.800;9.086;2022-12-07T10:20:34;8.43;;;2.28;;
71937;SDS011;59810;48.800;9.086;2022-12-07T10:25:33;9.40;;;3.38;;
71937;SDS011;59810;48.800;9.086;2022-12-07T10:28:02;8.60;;;2.70;;
71937;SDS011;59810;48.800;9.086;2022-12-07T10:30:46;8.37;;;2.50;;
71937;SDS011;59810;48.800;9.086;2022-12-07T10:33:32;7.35;;;2.35;;
71937;SDS011;59810;48.800;9.086;2022-12-07T10:41:56;6.65;;;2.13;;
71937;SDS011;59810;48.800;9.086;2022-12-07T10:44:30;7.93;;;1.70;;
71937;SDS011;59810;48.800;9.086;2022-12-07T11:00:11;8.13;;;2.75;;
71937;SDS011;59810;48.800;9.086;2022-12-07T11:03:05;5.85;;;2.88;;
71937;SDS011;59810;48.800;9.086;2022-12-07T11:05:52;4.90;;;2.10;;
71937;SDS011;59810;48.800;9.086;2022-12-07T11:13:46;6.50;;;1.30;;
71937;SDS011;59810;48.800;9.086;2022-12-07T11:16:22;5.68;;;1.13;;
71937;SDS011;59810;48.800;9.086;2022-12-07T11:19:17;4.70;;;1.58;;
71937;SDS011;59810;48.800;9.086;2022-12-07T11:22:06;4.75;;;1.50;;
71937;SDS011;59810;48.800;9.086;2022-12-07T11:24:48;5.00;;;1.30;;
71937;SDS011;59810;48.800;9.086;2022-12-07T11:27:34;5.30;;;1.42;;
71937;SDS011;59810;48.800;9.086;2022-12-07T11:30:29;4.45;;;1.50;;
71937;SDS011;59810;48.800;9.086;2022-12-07T11:36:44;5.38;;;1.60;;
71937;SDS011;59810;48.800;9.086;2022-12-07T11:39:10;7.10;;;2.13;;
71937;SDS011;59810;48.800;9.086;2022-12-07T11:41:39;4.70;;;1.58;;
71937;SDS011;59810;48.800;9.086;2022-12-07T11:49:12;5.53;;;2.00;;
71937;SDS011;59810;48.800;9.086;2022-12-07T11:51:38;6.83;;;2.47;;
71937;SDS011;59810;48.800;9.086;2022-12-07T11:54:13;6.63;;;2.15;;
71937;SDS011;59810;48.800;9.086;2022-12-07T11:56:43;6.72;;;2.75;;
71937;SDS011;59810;48.800;9.086;2022-12-07T12:02:14;8.32;;;2.92;;
71937;SDS011;59810;48.800;9.086;2022-12-07T12:07:17;9.63;;;3.47;;
71937;SDS011;59810;48.800;9.086;2022-12-07T12:09:51;8.40;;;3.22;;
71937;SDS011;59810;48.800;9.086;2022-12-07T12:17:47;8.98;;;3.45;;
71937;SDS011;59810;48.800;9.086;2022-12-07T12:28:15;9.00;;;3.07;;
71937;SDS011;59810;48.800;9.086;2022-12-07T12:33:46;8.07;;;3.00;;
71937;SDS011;59810;48.800;9.086;2022-12-07T12:38:51;7.83;;;2.97;;
71937;SDS011;59810;48.800;9.086;2022-12-07T12:51:49;8.97;;;3.77;;
71937;SDS011;59810;48.800;9.086;2022-12-07T12:59:42;9.02;;;2.72;;
71937;SDS011;59810;48.800;9.086;2022-12-07T13:23:10;10.43;;;4.37;;
71937;SDS011;59810;48.800;9.086;2022-12-07T13:25:44;8.63;;;3.13;;
71937;SDS011;59810;48.800;9.086;2022-12-07T13:28:16;8.98;;;2.95;;
71937;SDS011;59810;48.800;9.086;2022-12-07T13:30:50;9.57;;;3.05;;
71937;SDS011;59810;48.800;9.086;2022-12-07T13:33:24;10.70;;;3.17;;
71937;SDS011;59810;48.800;9.086;2022-12-07T13:35:53;8.27;;;3.40;;
71937;SDS011;59810;48.800;9.086;2022-12-07T13:38:28;8.18;;;3.53;;
71937;SDS011;59810;48.800;9.086;2022-12-07T13:41:15;10.45;;;4.35;;
71937;SDS011;59810;48.800;9.086;2022-12-07T13:44:33;9.43;;;3.53;;
71937;SDS011;59810;48.800;9.086;2022-12-07T13:49:45;8.47;;;3.50;;
71937;SDS011;59810;48.800;9.086;2022-12-07T13:54:47;7.85;;;2.75;;
71937;SDS011;59810;48.800;9.086;2022-12-07T13:57:15;6.95;;;2.65;;
71937;SDS011;59810;48.800;9.086;2022-12-07T13:59:41;11.35;;;4.25;;
71937;SDS011;59810;48.800;9.086;2022-12-07T14:02:17;11.43;;;3.70;;
71937;SDS011;59810;48.800;9.086;2022-12-07T14:05:05;12.90;;;4.20;;
71937;SDS011;59810;48.800;9.086;2022-12-07T14:07:49;11.25;;;4.43;;
71937;SDS011;59810;48.800;9.086;2022-12-07T14:10:42;11.43;;;3.20;;
71937;SDS011;59810;48.800;9.086;2022-12-07T14:13:28;11.98;;;4.70;;
71937;SDS011;59810;48.800;9.086;2022-12-07T14:16:00;15.23;;;3.85;;
71937;SDS011;59810;48.800;9.086;2022-12-07T14:21:14;9.05;;;3.55;;
71937;SDS011;59810;48.800;9.086;2022-12-07T14:23:44;9.93;;;3.90;;
71937;SDS011;59810;48.800;9.086;2022-12-07T14:26:14;11.15;;;4.65;;
71937;SDS011;59810;48.800;9.086;2022-12-07T14:28:43;9.32;;;3.70;;
71937;SDS011;59810;48.800;9.086;2022-12-07T14:31:16;10.43;;;3.30;;
71937;SDS011;59810;48.800;9.086;2022-12-07T14:33:44;8.73;;;3.78;;
71937;SDS011;59810;48.800;9.086;2022-12-07T14:36:10;8.87;;;3.63;;
71937;SDS011;59810;48.800;9.086;2022-12-07T14:38:37;11.05;;;4.68;;
71937;SDS011;59810;48.800;9.086;2022-12-07T14:41:06;10.88;;;4.80;;
71937;SDS011;59810;48.800;9.086;2022-12-07T14:43:58;8.45;;;3.38;;
71937;SDS011;59810;48.800;9.086;2022-12-07T14:46:24;8.73;;;3.60;;
71937;SDS011;59810;48.800;9.086;2022-12-07T14:48:52;9.77;;;4.10;;
71937;SDS011;59810;48.800;9.086;2022-12-07T14:51:17;9.85;;;4.43;;
71937;SDS011;59810;48.800;9.086;2022-12-07T14:53:44;9.37;;;3.67;;
71937;SDS011;59810;48.800;9.086;2022-12-07T14:56:14;8.50;;;3.25;;
71937;SDS011;59810;48.800;9.086;2022-12-07T14:58:40;8.90;;;2.90;;
71937;SDS011;59810;48.800;9.086;2022-12-07T15:01:06;6.77;;;2.60;;
71937;SDS011;59810;48.800;9.086;2022-12-07T15:03:31;9.10;;;2.70;;
71937;SDS011;59810;48.800;9.086;2022-12-07T15:05:57;7.23;;;2.63;;
71937;SDS011;59810;48.800;9.086;2022-12-07T15:08:23;7.63;;;2.88;;
71937;SDS011;59810;48.800;9.086;2022-12-07T15:10:48;7.83;;;3.10;;
71937;SDS011;59810;48.800;9.086;2022-12-07T15:13:14;7.65;;;2.80;;
71937;SDS011;59810;48.800;9.086;2022-12-07T15:15:58;6.82;;;2.65;;
71937;SDS011;59810;48.800;9.086;2022-12-07T15:18:26;7.20;;;2.80;;
71937;SDS011;59810;48.800;9.086;2022-12-07T15:20:52;7.70;;;2.65;;
71937;SDS011;59810;48.800;9.086;2022-12-07T15:23:18;8.13;;;3.47;;
71937;SDS011;59810;48.800;9.086;2022-12-07T15:25:44;7.67;;;3.60;;
71937;SDS011;59810;48.800;9.086;2022-12-07T15:28:11;8.98;;;3.60;;
71937;SDS011;59810;48.800;9.086;2022-12-07T15:30:37;10.25;;;3.53;;
71937;SDS011;59810;48.800;9.086;2022-12-07T15:33:06;10.68;;;4.32;;
71937;SDS011;59810;48.800;9.086;2022-12-07T15:35:38;9.07;;;4.10;;
71937;SDS011;59810;48.800;9.086;2022-12-07T15:38:10;8.33;;;3.70;;
71937;SDS011;59810;48.800;9.086;2022-12-07T15:40:36;10.88;;;4.78;;
71937;SDS011;59810;48.800;9.086;2022-12-07T15:43:01;13.77;;;6.03;;
71937;SDS011;59810;48.800;9.086;2022-12-07T15:45:27;17.65;;;8.23;;
71937;SDS011;59810;48.800;9.086;2022-12-07T15:47:52;14.40;;;6.23;;
71937;SDS011;59810;48.800;9.086;2022-12-07T15:50:20;11.30;;;5.82;;
71937;SDS011;59810;48.800;9.086;2022-12-07T15:52:48;16.48;;;6.53;;
71937;SDS011;59810;48.800;9.086;2022-12-07T15:55:16;13.03;;;5.87;;
71937;SDS011;59810;48.800;9.086;2022-12-07T15:57:41;14.55;;;5.70;;
71937;SDS011;59810;48.800;9.086;2022-12-07T16:00:07;14.07;;;5.67;;
71937;SDS011;59810;48.800;9.086;2022-12-07T16:02:37;15.85;;;5.82;;
71937;SDS011;59810;48.800;9.086;2022-12-07T16:05:02;11.77;;;5.40;;
71937;SDS011;59810;48.800;9.086;2022-12-07T16:07:28;14.23;;;5.03;;
71937;SDS011;59810;48.800;9.086;2022-12-07T16:09:53;13.90;;;5.23;;
71937;SDS011;59810;48.800;9.086;2022-12-07T16:12:23;14.07;;;5.67;;
71937;SDS011;59810;48.800;9.086;2022-12-07T16:14:51;14.75;;;4.93;;
71937;SDS011;59810;48.800;9.086;2022-12-07T16:17:16;12.33;;;5.27;;
71937;SDS011;59810;48.800;9.086;2022-12-07T16:19:42;14.73;;;5.63;;
71937;SDS011;59810;48.800;9.086;2022-12-07T16:22:09;12.65;;;5.00;;
71937;SDS011;59810;48.800;9.086;2022-12-07T16:24:35;26.40;;;12.13;;
71937;SDS011;59810;48.800;9.086;2022-12-07T16:27:01;16.63;;;6.15;;
71937;SDS011;59810;48.800;9.086;2022-12-07T16:29:26;12.87;;;5.20;;
71937;SDS011;59810;48.800;9.086;2022-12-07T16:31:52;14.15;;;5.47;;
71937;SDS011;59810;48.800;9.086;2022-12-07T16:34:17;13.93;;;5.73;;
71937;SDS011;59810;48.800;9.086;2022-12-07T16:36:43;13.93;;;5.55;;
71937;SDS011;59810;48.800;9.086;2022-12-07T16:39:09;13.10;;;5.20;;
71937;SDS011;59810;48.800;9.086;2022-12-07T16:41:36;17.05;;;7.88;;
71937;SDS011;59810;48.800;9.086;2022-12-07T16:44:05;13.70;;;5.83;;
71937;SDS011;59810;48.800;9.086;2022-12-07T16:46:32;13.50;;;5.40;;
71937;SDS011;59810;48.800;9.086;2022-12-07T16:48:58;15.60;;;5.72;;
71937;SDS011;59810;48.800;9.086;2022-12-07T16:51:24;13.87;;;6.23;;
71937;SDS011;59810;48.800;9.086;2022-12-07T16:53:51;17.33;;;6.63;;
71937;SDS011;59810;48.800;9.086;2022-12-07T16:56:17;14.48;;;6.28;;
71937;SDS011;59810;48.800;9.086;2022-12-07T16:58:43;14.83;;;6.10;;
71937;SDS011;59810;48.800;9.086;2022-12-07T17:01:10;15.60;;;6.57;;
71937;SDS011;59810;48.800;9.086;2022-12-07T17:03:48;14.77;;;5.90;;
71937;SDS011;59810;48.800;9.086;2022-12-07T17:06:20;14.85;;;5.80;;
71937;SDS011;59810;48.800;9.086;2022-12-07T17:08:47;16.93;;;5.93;;
71937;SDS011;59810;48.800;9.086;2022-12-07T17:11:22;14.30;;;5.10;;
71937;SDS011;59810;48.800;9.086;2022-12-07T17:13:49;14.52;;;5.60;;
71937;SDS011;59810;48.800;9.086;2022-12-07T17:16:34;11.55;;;4.90;;
71937;SDS011;59810;48.800;9.086;2022-12-07T17:19:04;13.98;;;5.32;;